Time;durP1;ratioP1;P1;durP2;ratioP2;P2;SDS_P1;SDS_P2;PMS_P1;PMS_P2;Temp;Humidity;BMP_temperature;BMP_pressure;BME280_temperature;BME280_humidity;BME280_pressure;Samples;Min_cycle;Max_cycle;Signal;HPM_P1;HPM_P2
2023/11/26 00:01:57;;;;;;;9.70;7.40;;;;;;;-3.72;100.00;98129.15;435768;1251;139805;-69
2023/11/26 00:12:05;;;;;;;8.50;6.80;;;;;;;-3.85;100.00;98135.54;436076;1253;139807;-61
2023/11/26 00:22:12;;;;;;;10.60;7.70;;;;;;;-3.92;100.00;98143.09;436756;1251;140164;-62
2023/11/26 00:32:18;;;;;;;9.00;7.80;;;;;;;-4.00;100.00;98160.73;435649;1251;140163;-61
2023/11/26 00:42:24;;;;;;;11.20;6.80;;;;;;;-4.07;100.00;98174.42;435770;1253;140296;-62
2023/11/26 00:52:32;;;;;;;10.10;7.00;;;;;;;-4.14;100.00;98187.78;435493;1253;139975;-62
2023/11/26 01:02:39;;;;;;;12.20;8.70;;;;;;;-4.16;100.00;98195.52;436077;1249;140122;-61
2023/11/26 01:12:45;;;;;;;7.90;7.10;;;;;;;-4.22;100.00;98201.66;435877;1250;141185;-63
2023/11/26 01:22:52;;;;;;;7.90;6.20;;;;;;;-4.21;100.00;98200.30;435942;1251;139547;-61
2023/11/26 01:32:58;;;;;;;10.40;6.90;;;;;;;-4.12;100.00;98206.88;435558;1251;139851;-60
2023/11/26 01:43:05;;;;;;;8.20;5.60;;;;;;;-4.12;100.00;98208.75;436209;1251;139659;-62
2023/11/26 01:53:11;;;;;;;7.10;6.20;;;;;;;-4.18;100.00;98219.35;435953;1254;140597;-62
2023/11/26 02:03:17;;;;;;;7.20;5.00;;;;;;;-4.19;100.00;98221.58;435620;1254;140169;-61
2023/11/26 02:13:25;;;;;;;6.70;5.30;;;;;;;-4.15;100.00;98225.59;435741;1253;139466;-61
2023/11/26 02:23:33;;;;;;;7.20;5.10;;;;;;;-4.18;100.00;98233.17;436069;1252;139749;-62
2023/11/26 02:33:39;;;;;;;7.10;5.00;;;;;;;-4.22;100.00;98239.25;435549;1251;139820;-61
2023/11/26 02:44:01;;;;;;;7.40;5.20;;;;;;;-4.27;100.00;98245.54;435924;1251;139544;-60
2023/11/26 02:54:08;;;;;;;5.00;4.40;;;;;;;-4.34;100.00;98247.25;436855;1254;140824;-62
2023/11/26 03:04:19;;;;;;;9.70;5.40;;;;;;;-4.41;100.00;98252.73;435642;1251;139741;-62
2023/11/26 03:14:25;;;;;;;6.60;3.50;;;;;;;-4.50;100.00;98259.43;436248;1250;140592;-61
2023/11/26 03:24:31;;;;;;;5.60;4.20;;;;;;;-4.55;100.00;98268.60;435910;1253;139522;-63
2023/11/26 03:34:39;;;;;;;4.70;3.50;;;;;;;-4.53;100.00;98277.61;436195;1250;139911;-62
2023/11/26 03:44:45;;;;;;;4.70;3.30;;;;;;;-4.48;100.00;98285.17;437536;1249;141151;-62
2023/11/26 03:54:51;;;;;;;5.40;3.50;;;;;;;-4.55;100.00;98290.98;435839;1250;139379;-62
2023/11/26 04:04:58;;;;;;;6.30;3.30;;;;;;;-4.65;100.00;98299.41;435480;1250;141014;-62
2023/11/26 04:15:06;;;;;;;3.80;3.00;;;;;;;-4.72;100.00;98303.67;435691;1250;141424;-61
2023/11/26 04:25:14;;;;;;;4.70;3.10;;;;;;;-4.83;100.00;98310.73;435866;1249;141845;-61
2023/11/26 04:35:20;;;;;;;4.20;2.30;;;;;;;-4.92;100.00;98316.89;436349;1251;139438;-62
2023/11/26 04:45:28;;;;;;;3.50;2.50;;;;;;;-5.00;100.00;98333.27;436892;1249;140313;-62
2023/11/26 04:55:34;;;;;;;2.60;2.30;;;;;;;-5.00;100.00;98337.56;436141;1252;139743;-61
2023/11/26 05:05:41;;;;;;;3.10;1.50;;;;;;;-5.01;100.00;98357.70;435957;1250;140943;-62
2023/11/26 05:15:48;;;;;;;2.70;1.50;;;;;;;-4.98;100.00;98368.40;435669;1249;139795;-62
2023/11/26 05:25:54;;;;;;;5.10;2.40;;;;;;;-5.01;100.00;98377.18;435699;1251;139742;-62
2023/11/26 05:36:03;;;;;;;3.20;2.20;;;;;;;-5.06;100.00;98389.21;436132;1254;139294;-62
2023/11/26 05:46:10;;;;;;;2.80;2.20;;;;;;;-5.13;100.00;98402.48;435612;1254;140887;-62
2023/11/26 05:56:17;;;;;;;3.40;2.20;;;;;;;-5.27;100.00;98408.73;435760;1250;139797;-61
2023/11/26 06:06:23;;;;;;;3.70;2.80;;;;;;;-5.30;100.00;98414.41;437186;1254;139762;-61
2023/11/26 06:16:30;;;;;;;3.50;2.60;;;;;;;-5.00;100.00;98429.05;437474;1250;140705;-61
2023/11/26 06:26:37;;;;;;;3.80;2.70;;;;;;;-4.55;100.00;98448.30;435707;1250;139921;-62
2023/11/26 06:36:44;;;;;;;3.10;2.80;;;;;;;-4.19;100.00;98468.04;435840;1254;139862;-62
2023/11/26 06:46:53;;;;;;;3.50;3.20;;;;;;;-3.90;100.00;98479.36;435620;1251;139996;-62
2023/11/26 06:57:00;;;;;;;4.90;3.80;;;;;;;-3.68;100.00;98490.65;435878;1253;139601;-63
2023/11/26 07:07:07;;;;;;;3.30;2.60;;;;;;;-3.51;100.00;98507.52;435697;1250;139188;-63
2023/11/26 07:17:13;;;;;;;3.70;2.90;;;;;;;-3.07;100.00;98524.25;435846;1251;139282;-62
2023/11/26 07:27:20;;;;;;;3.30;2.30;;;;;;;-2.09;100.00;98540.78;439233;1251;140243;-62
2023/11/26 07:37:27;;;;;;;3.10;2.10;;;;;;;-1.72;100.00;98557.03;436397;1253;139286;-63
2023/11/26 07:47:34;;;;;;;4.10;2.50;;;;;;;-1.69;100.00;98572.23;436600;1252;139069;-62
2023/11/26 07:57:41;;;;;;;2.90;2.40;;;;;;;-1.72;100.00;98579.15;436052;1254;139455;-62
2023/11/26 08:07:47;;;;;;;5.70;2.40;;;;;;;-1.82;100.00;98577.59;438373;1251;140325;-62
2023/11/26 08:17:55;;;;;;;4.30;3.00;;;;;;;-1.78;100.00;98581.41;436035;1253;139557;-62
2023/11/26 08:28:02;;;;;;;4.30;2.90;;;;;;;-1.71;100.00;98586.02;436000;1251;139841;-63
2023/11/26 08:38:09;;;;;;;4.40;3.00;;;;;;;-1.62;100.00;98592.10;435775;1253;139636;-62
2023/11/26 08:48:20;;;;;;;3.40;2.80;;;;;;;-1.53;100.00;98603.34;438211;1248;139114;-64
2023/11/26 08:58:27;;;;;;;4.90;3.00;;;;;;;-1.47;100.00;98612.94;436227;1253;140707;-62
2023/11/26 09:08:33;;;;;;;4.70;3.60;;;;;;;-1.43;100.00;98623.95;437229;1250;139991;-62
2023/11/26 09:18:39;;;;;;;6.50;3.80;;;;;;;-1.47;100.00;98628.55;435813;1254;139564;-63
2023/11/26 09:28:45;;;;;;;3.30;2.80;;;;;;;-1.43;100.00;98629.81;436275;1253;139494;-62
2023/11/26 09:39:01;;;;;;;3.40;3.10;;;;;;;-1.40;100.00;98632.96;435872;1253;140529;-62
2023/11/26 09:49:08;;;;;;;6.00;3.90;;;;;;;-1.38;100.00;98632.92;435691;1253;140107;-62
2023/11/26 09:59:27;;;;;;;6.10;3.40;;;;;;;-1.25;100.00;98638.37;435855;1249;141023;-62
2023/11/26 10:09:34;;;;;;;4.20;3.10;;;;;;;-1.17;100.00;98643.27;435866;1253;139963;-62
2023/11/26 10:19:41;;;;;;;6.30;4.10;;;;;;;-1.08;100.00;98642.13;435872;1251;139877;-63
2023/11/26 10:29:47;;;;;;;4.00;3.20;;;;;;;-1.05;100.00;98646.33;436789;1251;140625;-63
2023/11/26 10:39:53;;;;;;;;;;;;;;;-0.91;100.00;98643.15;436861;1253;139937;-63
2023/11/26 10:50:06;;;;;;;4.90;3.20;;;;;;;-0.65;100.00;98651.92;436478;1253;126527;-63
2023/11/26 11:00:21;;;;;;;2.80;2.40;;;;;;;-0.60;100.00;98654.66;435640;1252;140064;-66
2023/11/26 11:10:36;;;;;;;4.50;3.20;;;;;;;-0.64;100.00;98653.62;436817;1254;140315;-60
2023/11/26 11:21:05;;;;;;;4.00;2.70;;;;;;;-0.46;100.00;98650.27;435531;1251;139088;-68
2023/11/26 11:31:13;;;;;;;5.80;2.80;;;;;;;-0.25;100.00;98652.32;436311;1253;140261;-71
2023/11/26 11:41:19;;;;;;;4.00;2.60;;;;;;;-0.17;100.00;98665.27;437510;1253;139999;-64
2023/11/26 11:51:35;;;;;;;;;;;;;;;-0.08;100.00;98674.60;438045;1252;292309;-69
2023/11/26 12:01:43;;;;;;;4.10;3.20;;;;;;;0.00;100.00;98675.70;435849;1253;126069;-64
2023/11/26 12:11:49;;;;;;;5.20;3.60;;;;;;;-0.20;100.00;98683.77;435960;1253;139718;-63
2023/11/26 12:22:00;;;;;;;;;;;;;;;-0.35;100.00;98680.48;436421;1250;139416;-64
2023/11/26 12:32:09;;;;;;;5.80;4.10;;;;;;;-0.34;100.00;98685.30;435920;1255;125581;-64
2023/11/26 12:42:16;;;;;;;5.30;2.70;;;;;;;-0.31;100.00;98691.17;436072;1254;139605;-64
2023/11/26 12:52:23;;;;;;;3.40;3.00;;;;;;;-0.41;100.00;98696.02;435794;1252;139873;-60
2023/11/26 13:02:33;;;;;;;3.00;2.40;;;;;;;-0.54;100.00;98701.09;435748;1251;140445;-60
2023/11/26 13:12:46;;;;;;;3.90;2.70;;;;;;;-0.66;100.00;98700.77;436777;1251;139111;-60
2023/11/26 13:22:54;;;;;;;3.00;2.30;;;;;;;-0.77;100.00;98705.08;435954;1251;140075;-61
2023/11/26 13:33:01;;;;;;;4.90;2.30;;;;;;;-0.93;100.00;98705.23;435689;1254;139555;-61
2023/11/26 13:43:08;;;;;;;2.90;2.30;;;;;;;-1.15;100.00;98723.59;435823;1254;141389;-61
2023/11/26 13:53:15;;;;;;;5.30;2.80;;;;;;;-1.30;100.00;98730.70;436816;1253;140383;-61
2023/11/26 14:03:23;;;;;;;2.10;1.80;;;;;;;-1.40;100.00;98723.13;435836;1250;139812;-61
2023/11/26 14:13:29;;;;;;;3.40;3.00;;;;;;;-1.51;100.00;98735.63;436039;1250;139991;-62
2023/11/26 14:23:35;;;;;;;4.50;2.70;;;;;;;-1.61;100.00;98734.52;435703;1254;139737;-60
2023/11/26 14:33:42;;;;;;;3.90;3.40;;;;;;;-1.65;100.00;98736.85;436116;1251;139314;-61
2023/11/26 14:43:49;;;;;;;5.20;3.90;;;;;;;-1.74;100.00;98726.46;435905;1254;140301;-60
2023/11/26 14:53:58;;;;;;;7.20;4.10;;;;;;;-1.87;100.00;98720.81;435855;1251;141612;-61
2023/11/26 15:04:04;;;;;;;4.30;3.40;;;;;;;-1.95;100.00;98722.73;435913;1253;139308;-60
2023/11/26 15:14:13;;;;;;;7.50;5.50;;;;;;;-2.04;100.00;98724.35;436054;1254;139880;-61
2023/11/26 15:24:19;;;;;;;6.70;5.10;;;;;;;-2.15;100.00;98723.09;436209;1254;139212;-62
2023/11/26 15:34:24;;;;;;;;;;;;;;;-2.24;100.00;98722.27;435863;1251;141125;-61
2023/11/26 15:44:30;;;;;;;7.00;4.00;;;;;;;-2.29;100.00;98718.82;436529;1254;126804;-60
2023/11/26 15:54:37;;;;;;;6.10;5.30;;;;;;;-2.35;100.00;98711.95;436302;1253;139656;-61
2023/11/26 16:04:47;;;;;;;7.30;4.50;;;;;;;-2.42;100.00;98713.50;435731;1259;139130;-61
2023/11/26 16:14:53;;;;;;;9.70;7.00;;;;;;;-2.44;100.00;98725.37;436570;1255;140126;-61
2023/11/26 16:24:58;;;;;;;;;;;;;;;-2.38;100.00;98729.83;435983;1251;139236;-61
2023/11/26 16:35:05;;;;;;;9.60;6.00;;;;;;;-2.37;100.00;98741.30;435775;1256;126053;-62
2023/11/26 16:45:12;;;;;;;8.00;6.40;;;;;;;-2.39;100.00;98744.94;435841;1251;140701;-62
2023/11/26 16:55:18;;;;;;;7.90;5.50;;;;;;;-2.40;100.00;98748.06;435799;1253;139527;-61
2023/11/26 17:05:25;;;;;;;6.40;5.00;;;;;;;-2.44;100.00;98749.86;435473;1253;139717;-62
2023/11/26 17:15:33;;;;;;;9.50;7.00;;;;;;;-2.47;100.00;98749.42;435942;1255;139865;-64
2023/11/26 17:25:42;;;;;;;5.70;4.90;;;;;;;-2.51;100.00;98750.22;435556;1254;139202;-62
2023/11/26 17:35:48;;;;;;;7.90;5.60;;;;;;;-2.54;100.00;98757.14;436225;1251;140827;-62
2023/11/26 17:45:55;;;;;;;6.20;5.10;;;;;;;-2.55;100.00;98762.96;435584;1254;139378;-61
2023/11/26 17:56:03;;;;;;;7.70;5.90;;;;;;;-2.57;100.00;98767.83;436984;1253;140209;-62
2023/11/26 18:06:11;;;;;;;8.50;6.10;;;;;;;-2.59;100.00;98770.95;437553;1254;141293;-62
2023/11/26 18:16:19;;;;;;;7.50;5.90;;;;;;;-2.61;100.00;98775.30;436537;1254;139727;-63
2023/11/26 18:26:26;;;;;;;7.60;5.40;;;;;;;-2.67;100.00;98777.48;435871;1253;140055;-61
2023/11/26 18:36:32;;;;;;;8.30;5.80;;;;;;;-2.69;100.00;98775.81;436299;1251;139595;-60
2023/11/26 18:46:38;;;;;;;10.40;6.40;;;;;;;-2.75;100.00;98778.02;436387;1253;141026;-60
2023/11/26 18:56:45;;;;;;;10.00;7.30;;;;;;;-2.81;100.00;98775.23;435706;1253;139597;-60
2023/11/26 19:06:52;;;;;;;11.10;8.30;;;;;;;-2.87;100.00;98770.57;436598;1253;140522;-61
2023/11/26 19:17:00;;;;;;;10.80;7.40;;;;;;;-2.93;100.00;98773.61;436498;1253;140727;-62
2023/11/26 19:27:07;;;;;;;11.50;7.40;;;;;;;-2.98;100.00;98774.91;436155;1250;139617;-62
2023/11/26 19:37:13;;;;;;;7.40;6.10;;;;;;;-3.00;100.00;98778.90;436930;1251;140200;-61
2023/11/26 19:47:20;;;;;;;8.80;5.70;;;;;;;-2.96;100.00;98770.95;436587;1251;140862;-59
2023/11/26 19:57:26;;;;;;;11.80;6.40;;;;;;;-2.91;100.00;98771.17;436245;1254;139820;-61
2023/11/26 20:07:33;;;;;;;10.60;6.20;;;;;;;-2.86;100.00;98754.78;436220;1251;139506;-62
2023/11/26 20:17:40;;;;;;;11.60;6.80;;;;;;;-2.85;100.00;98756.83;435959;1253;139721;-62
2023/11/26 20:27:47;;;;;;;8.90;7.20;;;;;;;-2.87;100.00;98757.73;435901;1251;139930;-60
2023/11/26 20:37:53;;;;;;;11.70;7.10;;;;;;;-2.90;100.00;98757.27;436141;1253;139507;-61
2023/11/26 20:48:00;;;;;;;11.50;6.60;;;;;;;-2.92;100.00;98747.04;436126;1253;141016;-61
2023/11/26 20:58:07;;;;;;;8.80;6.40;;;;;;;-2.94;100.00;98747.27;436355;1253;141751;-61
2023/11/26 21:08:13;;;;;;;9.50;6.90;;;;;;;-2.94;100.00;98737.15;436598;1248;139851;-61
2023/11/26 21:18:20;;;;;;;8.90;6.50;;;;;;;-2.95;100.00;98742.83;436690;1253;140249;-60
2023/11/26 21:28:27;;;;;;;12.90;6.80;;;;;;;-2.94;100.00;98750.34;436479;1249;139821;-60
2023/11/26 21:38:34;;;;;;;9.40;6.40;;;;;;;-2.92;100.00;98735.23;436694;1251;141030;-61
2023/11/26 21:48:40;;;;;;;11.20;7.40;;;;;;;-2.88;100.00;98726.73;437275;1251;139742;-61
2023/11/26 21:58:47;;;;;;;11.90;7.60;;;;;;;-2.88;100.00;98720.25;436646;1252;140248;-60
2023/11/26 22:08:55;;;;;;;12.50;7.80;;;;;;;-2.88;100.00;98720.59;436281;1254;140169;-61
2023/11/26 22:19:01;;;;;;;11.90;7.50;;;;;;;-2.88;100.00;98726.92;435887;1251;140291;-61
2023/11/26 22:29:11;;;;;;;10.30;7.30;;;;;;;-2.88;100.00;98729.14;435466;1251;139895;-72
2023/11/26 22:39:17;;;;;;;8.80;6.30;;;;;;;-2.89;100.00;98727.61;435721;1250;139565;-71
2023/11/26 22:49:24;;;;;;;9.30;6.50;;;;;;;-2.90;100.00;98726.27;436153;1249;139532;-77
2023/11/26 22:59:30;;;;;;;10.60;7.30;;;;;;;-2.89;100.00;98725.40;436147;1250;139600;-68
2023/11/26 23:09:36;;;;;;;11.60;7.30;;;;;;;-2.93;100.00;98724.13;438465;1253;139783;-74
2023/11/26 23:19:43;;;;;;;9.40;7.00;;;;;;;-2.96;100.00;98730.34;436816;1253;139411;-71
2023/11/26 23:29:50;;;;;;;9.90;6.20;;;;;;;-2.99;100.00;98730.05;435743;1254;139688;-69
2023/11/26 23:39:56;;;;;;;15.60;6.70;;;;;;;-3.04;100.00;98727.95;436333;1253;139672;-70
2023/11/26 23:50:04;;;;;;;7.60;6.10;;;;;;;-3.05;100.00;98734.50;436971;1249;179710;-73
